Time;durP1;ratioP1;P1;durP2;ratioP2;P2;SDS_P1;SDS_P2;PMS_P1;PMS_P2;Temp;Humidity;BMP_temperature;BMP_pressure;BME280_temperature;BME280_humidity;BME280_pressure;Samples;Min_cycle;Max_cycle;Signal;HPM_P1;HPM_P2
2021/01/20 00:02:04;;;;;;;8.57;5.40;;;7.40;99.90;;;;;;5114989;28;20175;-85
2021/01/20 00:04:30;;;;;;;9.07;6.37;;;7.40;99.90;;;;;;5096934;28;20189;-85
2021/01/20 00:06:56;;;;;;;10.33;6.00;;;7.40;99.90;;;;;;5096642;28;20275;-86
2021/01/20 00:09:22;;;;;;;11.63;5.60;;;7.40;99.90;;;;;;5096443;28;20662;-86
2021/01/20 00:11:48;;;;;;;8.87;5.33;;;7.40;99.90;;;;;;5096603;28;20627;-85
2021/01/20 00:14:14;;;;;;;11.53;6.33;;;7.40;99.90;;;;;;5096937;28;20178;-84
2021/01/20 00:16:40;;;;;;;10.17;6.17;;;7.40;99.90;;;;;;5096461;28;20262;-85
2021/01/20 00:19:06;;;;;;;12.97;5.97;;;7.50;99.90;;;;;;5096561;28;20205;-87
2021/01/20 00:21:32;;;;;;;8.67;5.53;;;7.50;99.90;;;;;;5096370;28;20178;-86
2021/01/20 00:23:58;;;;;;;9.83;5.83;;;7.50;99.90;;;;;;5096102;28;20183;-87
2021/01/20 00:26:23;;;;;;;7.50;5.40;;;7.50;99.90;;;;;;5096362;28;20682;-85
2021/01/20 00:28:49;;;;;;;9.93;6.20;;;7.50;99.90;;;;;;5096413;28;20202;-85
2021/01/20 00:31:15;;;;;;;8.83;5.80;;;7.50;99.90;;;;;;5107923;28;20399;-86
2021/01/20 00:33:40;;;;;;;8.63;5.73;;;7.50;99.90;;;;;;5078468;28;20761;-85
2021/01/20 00:36:07;;;;;;;7.43;4.80;;;7.60;99.90;;;;;;5075750;28;20627;-85
2021/01/20 00:38:32;;;;;;;8.97;5.27;;;7.60;99.90;;;;;;5075735;28;20179;-85
2021/01/20 00:40:58;;;;;;;8.50;5.40;;;7.80;99.90;;;;;;5075904;28;20643;-85
2021/01/20 00:43:24;;;;;;;11.23;5.90;;;7.60;99.90;;;;;;5093745;28;20619;-84
2021/01/20 00:45:50;;;;;;;6.93;4.77;;;7.60;99.90;;;;;;5075393;28;20698;-85
2021/01/20 00:48:15;;;;;;;9.10;5.70;;;7.60;99.90;;;;;;5092374;28;20202;-83
2021/01/20 00:50:41;;;;;;;7.63;5.27;;;7.60;99.90;;;;;;5093659;28;20211;-84
2021/01/20 00:53:06;;;;;;;10.07;6.03;;;7.60;99.90;;;;;;5075201;28;20174;-84
2021/01/20 00:55:32;;;;;;;9.97;5.40;;;7.70;99.90;;;;;;5075754;28;20179;-85
2021/01/20 00:57:58;;;;;;;6.93;4.97;;;7.70;99.90;;;;;;5092306;28;20168;-85
2021/01/20 01:00:24;;;;;;;10.03;5.60;;;7.60;99.90;;;;;;5093524;28;20167;-86
2021/01/20 01:02:49;;;;;;;9.87;5.77;;;7.70;99.90;;;;;;5093324;28;20651;-85
2021/01/20 01:05:16;;;;;;;9.53;4.90;;;7.70;99.90;;;;;;5091574;28;20178;-85
2021/01/20 01:07:41;;;;;;;7.90;5.10;;;7.70;99.90;;;;;;5075012;28;20356;-85
2021/01/20 01:10:08;;;;;;;7.80;5.27;;;7.60;99.90;;;;;;5075236;28;20736;-84
2021/01/20 01:12:33;;;;;;;8.70;5.37;;;7.60;99.90;;;;;;5075296;28;20232;-86
2021/01/20 01:14:59;;;;;;;6.63;4.83;;;7.60;99.90;;;;;;5075555;28;20171;-85
2021/01/20 01:17:25;;;;;;;9.57;5.23;;;7.60;99.90;;;;;;5075177;28;20654;-84
2021/01/20 01:19:50;;;;;;;7.87;4.73;;;7.60;99.90;;;;;;5075413;28;20172;-85
2021/01/20 01:22:16;;;;;;;8.33;5.80;;;7.60;99.90;;;;;;5075024;28;20171;-85
2021/01/20 01:24:42;;;;;;;10.43;4.43;;;7.70;99.90;;;;;;5093245;28;20185;-85
2021/01/20 01:27:07;;;;;;;9.03;5.07;;;7.70;99.90;;;;;;5093008;28;20179;-84
2021/01/20 01:29:33;;;;;;;7.00;4.73;;;7.90;99.90;;;;;;5074728;28;20298;-84
2021/01/20 01:31:59;;;;;;;6.50;4.67;;;7.60;99.90;;;;;;5075330;28;20193;-85
2021/01/20 01:34:26;;;;;;;7.73;5.57;;;7.70;99.90;;;;;;5075072;28;20262;-86
2021/01/20 01:36:51;;;;;;;9.17;5.40;;;7.60;99.90;;;;;;5080393;28;20183;-85
2021/01/20 01:39:17;;;;;;;8.93;4.73;;;7.60;99.90;;;;;;5083451;28;20172;-84
2021/01/20 01:41:42;;;;;;;7.77;4.47;;;7.60;99.90;;;;;;5075707;28;20544;-85
2021/01/20 01:44:08;;;;;;;8.43;5.13;;;7.80;99.90;;;;;;5075335;28;20216;-84
2021/01/20 01:46:34;;;;;;;8.23;5.23;;;7.60;99.90;;;;;;5075316;28;20258;-86
2021/01/20 01:49:00;;;;;;;6.60;4.33;;;7.50;99.90;;;;;;5075079;28;20534;-84
2021/01/20 01:51:26;;;;;;;7.60;4.97;;;7.60;99.90;;;;;;5092905;28;20203;-86
2021/01/20 01:53:53;;;;;;;7.67;5.13;;;7.60;99.90;;;;;;5074934;28;20168;-85
2021/01/20 01:56:20;;;;;;;6.87;4.80;;;7.70;99.90;;;;;;5074984;28;20179;-86
2021/01/20 01:58:51;;;;;;;7.27;4.83;;;7.60;99.90;;;;;;5075290;28;20191;-85
2021/01/20 02:01:17;;;;;;;7.43;5.33;;;7.60;99.90;;;;;;5074947;28;20225;-86
2021/01/20 02:03:43;;;;;;;7.37;4.60;;;7.70;99.90;;;;;;5075084;28;20195;-85
2021/01/20 02:06:09;;;;;;;8.57;4.70;;;7.60;99.90;;;;;;5091446;28;20206;-85
2021/01/20 02:08:35;;;;;;;8.27;4.90;;;7.60;99.90;;;;;;5074913;28;20655;-85
2021/01/20 02:11:37;;;;;;;7.77;4.63;;;7.60;99.90;;;;;;5074613;28;20294;-85
2021/01/20 02:14:20;;;;;;;6.93;5.10;;;7.60;99.90;;;;;;5075011;28;20167;-85
2021/01/20 02:17:00;;;;;;;9.03;4.70;;;7.60;99.90;;;;;;5095290;28;20704;-86
2021/01/20 02:19:44;;;;;;;9.90;4.97;;;7.70;99.90;;;;;;5078626;28;20262;-87
2021/01/20 02:22:21;;;;;;;7.00;4.77;;;7.60;99.90;;;;;;5095473;28;20179;-84
2021/01/20 02:25:10;;;;;;;7.03;4.67;;;7.80;99.90;;;;;;5078361;28;20172;-85
2021/01/20 02:27:47;;;;;;;8.53;5.17;;;7.60;99.90;;;;;;5078661;28;20175;-86
2021/01/20 02:30:14;;;;;;;10.40;4.93;;;7.60;99.90;;;;;;5078238;28;20757;-86
2021/01/20 02:32:41;;;;;;;9.70;4.87;;;7.60;99.90;;;;;;5078400;28;20171;-85
2021/01/20 02:35:10;;;;;;;6.97;5.00;;;7.70;99.90;;;;;;5077981;28;20215;-85
2021/01/20 02:37:37;;;;;;;8.03;4.70;;;7.70;99.90;;;;;;5078285;28;20188;-85
2021/01/20 02:40:04;;;;;;;8.70;5.07;;;7.70;99.90;;;;;;5078038;28;20175;-85
2021/01/20 02:42:31;;;;;;;7.63;4.60;;;7.70;99.90;;;;;;5096064;28;20676;-83
2021/01/20 02:44:57;;;;;;;7.33;5.40;;;7.70;99.90;;;;;;5078198;28;20199;-85
2021/01/20 02:47:23;;;;;;;11.83;4.57;;;7.70;99.90;;;;;;5078227;28;20175;-86
2021/01/20 02:49:49;;;;;;;6.33;4.37;;;7.70;99.90;;;;;;5077674;28;20723;-86
2021/01/20 02:52:42;;;;;;;6.00;4.83;;;7.70;99.90;;;;;;5077978;28;20283;-84
2021/01/20 02:55:10;;;;;;;6.47;4.97;;;7.60;99.90;;;;;;5077780;28;20631;-85
2021/01/20 02:57:38;;;;;;;7.47;4.73;;;7.60;99.90;;;;;;5078262;28;20167;-85
2021/01/20 03:00:05;;;;;;;7.27;4.67;;;7.70;99.90;;;;;;5077973;28;20168;-84
2021/01/20 03:02:33;;;;;;;9.13;5.17;;;7.70;99.90;;;;;;5077779;28;20274;-84
2021/01/20 03:05:00;;;;;;;7.63;4.67;;;7.70;99.90;;;;;;5077623;28;20178;-84
2021/01/20 03:07:29;;;;;;;7.47;4.57;;;7.70;99.90;;;;;;5077536;28;20179;-84
2021/01/20 03:09:56;;;;;;;7.80;5.23;;;7.70;99.90;;;;;;5077627;28;20218;-84
2021/01/20 03:12:29;;;;;;;7.67;4.13;;;7.70;99.90;;;;;;5077712;28;20683;-85
2021/01/20 03:14:57;;;;;;;8.07;4.63;;;7.70;99.90;;;;;;5078027;28;20175;-85
2021/01/20 03:17:25;;;;;;;6.10;4.43;;;7.90;99.90;;;;;;5077564;28;20573;-85
2021/01/20 03:19:51;;;;;;;5.87;4.47;;;7.80;99.90;;;;;;5077441;28;20191;-85
2021/01/20 03:22:17;;;;;;;6.53;4.90;;;7.80;99.90;;;;;;5077258;28;20207;-85
2021/01/20 03:24:43;;;;;;;5.73;4.23;;;7.80;99.90;;;;;;5077491;28;20183;-84
2021/01/20 03:27:08;;;;;;;6.03;4.00;;;7.80;99.90;;;;;;5093175;28;20176;-88
2021/01/20 03:29:34;;;;;;;6.60;3.70;;;7.90;99.90;;;;;;5077237;28;20192;-86
2021/01/20 03:32:00;;;;;;;6.20;3.83;;;7.90;99.90;;;;;;5076943;28;20252;-85
2021/01/20 03:34:25;;;;;;;6.37;4.17;;;8.00;99.90;;;;;;5077272;28;20175;-84
2021/01/20 03:36:51;;;;;;;6.10;4.57;;;8.00;99.90;;;;;;5076872;28;20178;-88
2021/01/20 03:39:17;;;;;;;5.77;3.87;;;8.10;99.90;;;;;;5078863;28;20171;-85
2021/01/20 03:41:42;;;;;;;6.60;3.50;;;8.20;99.90;;;;;;5077090;28;20267;-85
2021/01/20 03:44:08;;;;;;;5.83;3.87;;;8.20;99.90;;;;;;5077039;28;20174;-85
2021/01/20 03:46:34;;;;;;;4.47;3.47;;;8.20;99.90;;;;;;5076699;28;20517;-85
2021/01/20 03:48:59;;;;;;;4.33;3.13;;;8.20;99.90;;;;;;5076909;28;20168;-85
2021/01/20 03:51:28;;;;;;;5.23;3.30;;;8.20;99.90;;;;;;5093344;28;20224;-86
2021/01/20 03:53:54;;;;;;;5.77;3.40;;;8.50;99.90;;;;;;5095014;28;20160;-84
2021/01/20 03:56:19;;;;;;;5.70;3.10;;;8.40;99.90;;;;;;5076343;28;20606;-86
2021/01/20 03:58:45;;;;;;;4.27;2.90;;;8.40;99.90;;;;;;5076697;28;20239;-85
2021/01/20 04:01:11;;;;;;;5.47;2.73;;;8.40;99.90;;;;;;5076281;28;20171;-84
2021/01/20 04:03:36;;;;;;;4.43;2.53;;;8.50;99.90;;;;;;5076538;28;20238;-85
2021/01/20 04:06:04;;;;;;;3.93;2.83;;;8.50;99.90;;;;;;5076463;28;20212;-84
2021/01/20 04:08:30;;;;;;;3.50;2.70;;;8.50;99.90;;;;;;5076131;28;20260;-85
2021/01/20 04:10:55;;;;;;;4.77;3.00;;;8.60;99.90;;;;;;5076260;28;20219;-84
2021/01/20 04:13:23;;;;;;;5.77;3.00;;;8.60;99.90;;;;;;5094459;28;20641;-85
2021/01/20 04:15:49;;;;;;;3.00;2.33;;;8.60;99.90;;;;;;5092871;28;20172;-85
2021/01/20 04:18:15;;;;;;;4.30;2.90;;;8.60;99.90;;;;;;5076240;28;20545;-85
2021/01/20 04:20:40;;;;;;;4.73;2.60;;;8.60;99.90;;;;;;5094337;28;20180;-85
2021/01/20 04:23:06;;;;;;;4.07;2.87;;;8.60;99.90;;;;;;5076099;28;20648;-85
2021/01/20 04:25:31;;;;;;;4.10;2.70;;;8.60;99.90;;;;;;5076580;28;20266;-85
2021/01/20 04:27:57;;;;;;;5.57;2.60;;;8.60;99.90;;;;;;5076196;28;20171;-84
2021/01/20 04:30:23;;;;;;;5.73;2.73;;;8.60;99.90;;;;;;5075878;28;20203;-85
2021/01/20 04:32:49;;;;;;;4.37;2.70;;;8.70;99.90;;;;;;5075986;28;20175;-84
2021/01/20 04:35:16;;;;;;;3.47;2.50;;;8.60;99.90;;;;;;5076026;28;20176;-86
2021/01/20 04:37:41;;;;;;;3.63;2.60;;;8.60;99.90;;;;;;5075694;28;20179;-85
2021/01/20 04:40:07;;;;;;;4.27;2.83;;;8.70;99.90;;;;;;5075928;28;20190;-86
2021/01/20 04:42:33;;;;;;;4.23;2.27;;;8.60;99.90;;;;;;5075471;28;20175;-85
2021/01/20 04:45:00;;;;;;;5.60;2.37;;;8.70;99.90;;;;;;5075759;28;20262;-84
2021/01/20 04:47:28;;;;;;;5.33;2.47;;;8.60;99.90;;;;;;5092579;28;20648;-85
2021/01/20 04:49:54;;;;;;;3.90;2.30;;;8.60;99.90;;;;;;5075852;28;20215;-84
2021/01/20 04:52:22;;;;;;;4.67;2.63;;;8.60;99.90;;;;;;5075618;28;20259;-85
2021/01/20 04:54:49;;;;;;;3.90;2.30;;;8.60;99.90;;;;;;5075882;28;20200;-86
2021/01/20 04:57:15;;;;;;;3.40;2.17;;;8.60;99.90;;;;;;5075928;28;20695;-84
2021/01/20 04:59:42;;;;;;;3.70;2.10;;;8.60;99.90;;;;;;5075063;28;20172;-85
2021/01/20 05:02:13;;;;;;;4.77;2.50;;;8.50;99.90;;;;;;5075484;28;20171;-85
2021/01/20 05:04:42;;;;;;;3.83;2.77;;;8.50;99.90;;;;;;5075522;28;20159;-86
2021/01/20 05:07:08;;;;;;;5.83;2.50;;;8.50;99.90;;;;;;5075373;28;20654;-85
2021/01/20 05:09:34;;;;;;;4.80;2.50;;;8.60;99.90;;;;;;5075398;28;20298;-85
2021/01/20 05:12:00;;;;;;;4.70;2.73;;;8.40;99.90;;;;;;5075479;28;20172;-85
2021/01/20 05:14:26;;;;;;;3.97;2.80;;;8.40;99.90;;;;;;5075419;28;20508;-84
2021/01/20 05:16:53;;;;;;;6.30;3.20;;;8.40;99.90;;;;;;5075794;28;20174;-86
2021/01/20 05:19:40;;;;;;;4.43;2.57;;;8.40;99.90;;;;;;5075309;28;20220;-84
2021/01/20 05:22:07;;;;;;;4.20;2.60;;;8.20;99.90;;;;;;5075201;28;20175;-85
2021/01/20 05:24:37;;;;;;;3.00;2.50;;;8.20;99.90;;;;;;5075244;28;20563;-84
2021/01/20 05:27:04;;;;;;;4.33;3.00;;;8.10;99.90;;;;;;5075353;28;20171;-85
2021/01/20 05:29:30;;;;;;;6.47;2.77;;;8.10;99.90;;;;;;5075180;28;20624;-85
2021/01/20 05:31:55;;;;;;;4.33;2.70;;;8.10;99.90;;;;;;5075814;28;20183;-86
2021/01/20 05:34:32;;;;;;;4.17;2.57;;;8.10;99.90;;;;;;5075372;28;20304;-84
2021/01/20 05:37:14;;;;;;;6.23;3.27;;;8.00;99.90;;;;;;5075470;28;20187;-86
2021/01/20 05:39:40;;;;;;;5.50;3.40;;;8.00;99.90;;;;;;5075188;28;20630;-85
2021/01/20 05:42:07;;;;;;;4.27;2.60;;;8.00;99.90;;;;;;5075525;28;20175;-87
2021/01/20 05:44:34;;;;;;;5.37;2.87;;;8.00;99.90;;;;;;5075049;28;20176;-85
2021/01/20 05:47:09;;;;;;;5.13;3.20;;;7.90;99.90;;;;;;5075471;28;20206;-85
2021/01/20 05:49:35;;;;;;;5.00;3.17;;;8.00;99.90;;;;;;5075515;28;20252;-86
2021/01/20 05:52:02;;;;;;;9.80;3.07;;;8.10;99.90;;;;;;5079367;28;20183;-85
2021/01/20 05:54:38;;;;;;;5.50;2.70;;;8.10;99.90;;;;;;5079354;28;20201;-86
2021/01/20 05:57:16;;;;;;;5.40;3.00;;;8.00;99.90;;;;;;5081565;28;20183;-84
2021/01/20 05:59:43;;;;;;;5.53;2.90;;;8.00;99.90;;;;;;5085569;28;20182;-85
2021/01/20 06:02:10;;;;;;;4.37;3.23;;;8.00;99.90;;;;;;5078742;28;20163;-87
2021/01/20 06:04:37;;;;;;;3.43;2.60;;;8.00;99.90;;;;;;5078391;28;20171;-85
2021/01/20 06:07:04;;;;;;;5.07;3.10;;;8.00;99.90;;;;;;5096927;28;20172;-84
2021/01/20 06:09:32;;;;;;;4.00;2.70;;;8.10;99.90;;;;;;5078326;28;20207;-84
2021/01/20 06:11:58;;;;;;;4.03;2.77;;;8.00;99.90;;;;;;5078545;28;20179;-85
2021/01/20 06:14:23;;;;;;;4.57;3.00;;;8.00;99.90;;;;;;5078208;28;20694;-84
2021/01/20 06:16:52;;;;;;;4.70;2.83;;;8.10;99.90;;;;;;5078630;28;20172;-85
2021/01/20 06:19:21;;;;;;;5.77;2.40;;;8.10;99.90;;;;;;5078682;28;20581;-85
2021/01/20 06:21:48;;;;;;;4.50;2.90;;;8.10;99.90;;;;;;5078425;28;20258;-85
2021/01/20 06:24:36;;;;;;;5.80;3.43;;;8.10;99.90;;;;;;5078215;28;20191;-87
2021/01/20 06:27:06;;;;;;;5.40;3.20;;;8.10;99.90;;;;;;5078181;28;20172;-86
2021/01/20 06:29:36;;;;;;;5.27;2.90;;;8.10;99.90;;;;;;5095360;28;20581;-85
2021/01/20 06:32:02;;;;;;;5.33;2.87;;;8.10;99.90;;;;;;5096509;28;20205;-85
2021/01/20 06:34:28;;;;;;;4.30;2.53;;;8.10;99.90;;;;;;5078378;28;20254;-85
2021/01/20 06:36:54;;;;;;;5.10;2.70;;;8.10;99.90;;;;;;5082357;28;20198;-85
2021/01/20 06:39:25;;;;;;;5.00;2.73;;;8.10;99.90;;;;;;5079266;28;20278;-87
2021/01/20 06:41:51;;;;;;;5.90;3.13;;;8.20;99.90;;;;;;5094764;28;20179;-85
2021/01/20 06:44:17;;;;;;;4.33;2.57;;;8.10;99.90;;;;;;5096326;28;20191;-86
2021/01/20 06:46:59;;;;;;;5.33;2.80;;;8.10;99.90;;;;;;5078493;28;20647;-85
2021/01/20 06:49:29;;;;;;;5.83;2.70;;;8.20;99.90;;;;;;5078124;28;20175;-85
2021/01/20 06:52:12;;;;;;;4.47;2.80;;;8.20;99.90;;;;;;5093454;28;20220;-85
2021/01/20 06:54:40;;;;;;;4.90;2.80;;;8.20;99.90;;;;;;5098467;28;20650;-84
2021/01/20 06:57:35;;;;;;;3.17;2.30;;;8.20;99.90;;;;;;5097859;28;20171;-86
2021/01/20 07:00:07;;;;;;;4.87;2.70;;;8.20;99.90;;;;;;5098679;28;20170;-87
2021/01/20 07:02:56;;;;;;;4.23;2.40;;;8.20;99.90;;;;;;5097342;28;20182;-86
2021/01/20 07:05:44;;;;;;;4.10;2.87;;;8.20;99.90;;;;;;5098326;28;20171;-86
2021/01/20 07:08:10;;;;;;;3.50;2.40;;;8.30;99.90;;;;;;5097902;28;20197;-86
2021/01/20 07:10:58;;;;;;;4.30;2.40;;;8.30;99.90;;;;;;5097512;28;20211;-85
2021/01/20 07:13:32;;;;;;;4.07;2.33;;;8.30;99.90;;;;;;5097751;28;20174;-85
2021/01/20 07:15:59;;;;;;;4.80;2.43;;;8.30;99.90;;;;;;5097503;28;20602;-85
2021/01/20 07:18:25;;;;;;;3.67;2.50;;;8.40;99.90;;;;;;5116438;28;20257;-86
2021/01/20 07:20:53;;;;;;;6.07;2.27;;;8.50;99.90;;;;;;5097635;28;20213;-85
2021/01/20 07:23:19;;;;;;;3.67;2.30;;;8.50;99.90;;;;;;5097071;28;20673;-83
2021/01/20 07:25:47;;;;;;;4.17;2.90;;;8.50;99.90;;;;;;5114751;28;20171;-84
2021/01/20 07:28:12;;;;;;;3.83;2.40;;;8.50;99.90;;;;;;5096987;28;20660;-83
2021/01/20 07:30:38;;;;;;;3.97;2.70;;;8.50;99.90;;;;;;5114688;28;20289;-84
2021/01/20 07:33:15;;;;;;;4.17;2.57;;;8.60;99.90;;;;;;5115502;28;20226;-85
2021/01/20 07:35:41;;;;;;;4.47;2.30;;;8.60;99.90;;;;;;5099678;27;20182;-85
2021/01/20 07:38:07;;;;;;;5.13;2.30;;;8.60;99.90;;;;;;5105736;28;20187;-85
2021/01/20 07:40:38;;;;;;;6.30;2.87;;;8.70;99.90;;;;;;5112946;27;20192;-85
2021/01/20 07:43:04;;;;;;;6.00;2.83;;;8.60;99.90;;;;;;5115443;27;20174;-85
2021/01/20 07:45:41;;;;;;;6.13;2.40;;;8.60;99.90;;;;;;5096643;28;20206;-84
2021/01/20 07:48:08;;;;;;;3.90;2.30;;;8.60;99.90;;;;;;5096561;28;20251;-85
2021/01/20 07:50:47;;;;;;;4.73;2.47;;;8.50;99.90;;;;;;5096350;28;20207;-84
2021/01/20 07:53:19;;;;;;;8.37;3.00;;;8.50;99.90;;;;;;5111537;27;20166;-85
2021/01/20 07:55:47;;;;;;;3.93;2.47;;;8.50;99.90;;;;;;5135075;27;20626;-85
2021/01/20 07:58:13;;;;;;;4.93;2.80;;;8.50;99.90;;;;;;5116246;27;20270;-85
2021/01/20 08:00:47;;;;;;;4.13;2.40;;;8.50;99.90;;;;;;5116883;27;20169;-85
2021/01/20 08:03:28;;;;;;;3.90;2.60;;;8.50;99.90;;;;;;5135012;27;20170;-84
2021/01/20 08:05:55;;;;;;;3.67;2.53;;;8.50;99.90;;;;;;5115957;27;20166;-84
2021/01/20 08:08:20;;;;;;;2.87;1.93;;;8.60;99.90;;;;;;5134739;27;20212;-83
2021/01/20 08:10:46;;;;;;;4.50;2.60;;;8.60;99.90;;;;;;5100088;28;20635;-85
2021/01/20 08:13:14;;;;;;;3.80;2.43;;;8.60;99.90;;;;;;5095680;28;20171;-84
2021/01/20 08:15:43;;;;;;;4.73;2.70;;;8.60;99.90;;;;;;5096215;28;20219;-85
2021/01/20 08:18:12;;;;;;;4.43;2.57;;;8.60;99.90;;;;;;5095891;28;20276;-85
2021/01/20 08:20:38;;;;;;;5.03;3.10;;;8.70;99.90;;;;;;5087514;28;20183;-86
2021/01/20 08:23:11;;;;;;;7.37;3.27;;;8.70;99.90;;;;;;5092781;28;20672;-84
2021/01/20 08:25:37;;;;;;;4.90;2.83;;;8.70;99.90;;;;;;5095602;28;20174;-85
2021/01/20 08:28:13;;;;;;;6.40;3.20;;;8.80;99.90;;;;;;5096944;28;20248;-84
2021/01/20 08:30:39;;;;;;;4.63;2.47;;;8.80;99.90;;;;;;5095341;28;20600;-83
2021/01/20 08:33:05;;;;;;;3.70;2.30;;;8.80;99.90;;;;;;5113784;28;20304;-86
2021/01/20 08:35:38;;;;;;;2.87;2.00;;;8.80;99.90;;;;;;5095725;28;20175;-86
2021/01/20 08:38:05;;;;;;;4.43;2.30;;;8.80;99.90;;;;;;5095123;28;20708;-83
2021/01/20 08:40:31;;;;;;;5.57;2.60;;;8.70;99.90;;;;;;5113864;28;20179;-86
2021/01/20 08:42:57;;;;;;;4.40;2.13;;;8.70;99.90;;;;;;5098270;27;21053;-82
2021/01/20 08:45:22;;;;;;;4.23;2.47;;;8.70;99.90;;;;;;5115794;27;20171;-84
2021/01/20 08:47:55;;;;;;;3.47;2.23;;;8.70;99.90;;;;;;5107313;27;20552;-84
2021/01/20 08:50:36;;;;;;;4.93;2.30;;;8.80;99.90;;;;;;5091557;28;20203;-86
2021/01/20 08:53:10;;;;;;;4.00;2.10;;;8.80;99.90;;;;;;5091961;28;20167;-85
2021/01/20 08:55:41;;;;;;;4.13;2.30;;;8.90;99.90;;;;;;5093019;28;20175;-83
2021/01/20 08:58:22;;;;;;;4.90;2.60;;;8.90;99.90;;;;;;5105239;28;20349;-83
2021/01/20 09:00:53;;;;;;;6.10;2.83;;;8.90;99.90;;;;;;5094649;28;20185;-83
2021/01/20 09:03:23;;;;;;;5.17;2.57;;;8.90;99.90;;;;;;5094144;28;20170;-83
2021/01/20 09:05:51;;;;;;;4.80;2.80;;;8.90;99.90;;;;;;5094108;28;20283;-84
2021/01/20 09:08:17;;;;;;;4.80;3.03;;;9.00;99.90;;;;;;5112849;28;20175;-84
2021/01/20 09:10:44;;;;;;;5.53;3.20;;;9.20;99.90;;;;;;5102259;27;20237;-83
2021/01/20 09:13:11;;;;;;;7.57;3.60;;;9.10;99.90;;;;;;5115085;28;20297;-85
2021/01/20 09:15:36;;;;;;;3.90;2.50;;;9.10;99.90;;;;;;5100801;28;20248;-82
2021/01/20 09:18:02;;;;;;;4.67;2.30;;;9.10;99.90;;;;;;5094779;28;20187;-84
2021/01/20 09:20:28;;;;;;;3.53;2.07;;;9.10;99.90;;;;;;5112838;28;20603;-84
2021/01/20 09:22:55;;;;;;;5.07;2.50;;;9.10;99.90;;;;;;5094595;28;20193;-86
2021/01/20 09:25:20;;;;;;;4.77;2.67;;;9.20;99.90;;;;;;5093580;28;20554;-86
2021/01/20 09:27:46;;;;;;;4.83;2.20;;;9.10;99.90;;;;;;5094844;28;20178;-86
2021/01/20 09:30:12;;;;;;;5.07;2.23;;;9.10;99.90;;;;;;5094421;28;20210;-88
2021/01/20 09:32:39;;;;;;;4.40;2.40;;;9.10;99.90;;;;;;5091994;28;20183;-86
2021/01/20 09:35:12;;;;;;;4.20;2.10;;;9.10;99.90;;;;;;5100116;28;20654;-88
2021/01/20 09:37:40;;;;;;;4.60;2.13;;;9.10;99.90;;;;;;5092969;28;20163;-87
2021/01/20 09:40:08;;;;;;;4.57;2.60;;;9.10;99.90;;;;;;5092819;28;20171;-85
2021/01/20 09:42:35;;;;;;;4.80;2.37;;;9.20;99.90;;;;;;5074429;28;20210;-86
2021/01/20 09:45:02;;;;;;;6.47;2.50;;;9.20;99.90;;;;;;5073530;28;20258;-82
2021/01/20 09:47:28;;;;;;;6.57;2.50;;;9.30;99.90;;;;;;5091766;28;20316;-85
2021/01/20 09:49:53;;;;;;;4.93;1.93;;;9.50;99.90;;;;;;5073417;28;20675;-81
2021/01/20 09:52:20;;;;;;;3.80;1.90;;;9.70;99.90;;;;;;5073631;28;20620;-82
2021/01/20 09:54:46;;;;;;;4.47;2.23;;;9.60;99.90;;;;;;5073599;28;20180;-80
2021/01/20 09:57:11;;;;;;;3.97;2.07;;;9.70;99.90;;;;;;5073847;28;20318;-82
2021/01/20 09:59:37;;;;;;;4.50;1.97;;;9.80;99.90;;;;;;5073692;28;20576;-80
2021/01/20 10:02:03;;;;;;;7.07;2.30;;;9.80;99.90;;;;;;5091382;28;20312;-79
2021/01/20 10:04:29;;;;;;;4.87;2.47;;;9.70;99.90;;;;;;5091253;28;20176;-80
2021/01/20 10:06:55;;;;;;;4.07;1.80;;;9.80;99.90;;;;;;5106851;28;20857;-83
2021/01/20 10:09:21;;;;;;;4.20;2.03;;;9.80;99.90;;;;;;5111848;28;20257;-82
2021/01/20 10:11:49;;;;;;;8.70;2.43;;;9.80;99.90;;;;;;5093694;28;20305;-88
2021/01/20 10:14:16;;;;;;;3.60;1.90;;;9.90;99.90;;;;;;5093838;28;20171;-87
2021/01/20 10:16:41;;;;;;;3.23;2.00;;;9.70;99.90;;;;;;5095336;28;20175;-86
2021/01/20 10:19:07;;;;;;;3.90;2.13;;;9.70;99.90;;;;;;5094993;28;20326;-86
2021/01/20 10:21:33;;;;;;;4.67;2.37;;;9.80;99.90;;;;;;5094152;28;20178;-86
2021/01/20 10:23:58;;;;;;;4.93;2.10;;;9.70;99.90;;;;;;5112240;28;20265;-83
2021/01/20 10:26:24;;;;;;;5.30;2.83;;;9.70;99.90;;;;;;5113500;28;20197;-85
2021/01/20 10:28:50;;;;;;;5.60;2.80;;;9.70;99.90;;;;;;5095277;28;20171;-83
2021/01/20 10:31:15;;;;;;;5.63;2.57;;;9.80;99.90;;;;;;5092469;28;20627;-83
2021/01/20 10:33:44;;;;;;;6.03;2.37;;;9.90;99.90;;;;;;5093923;28;20174;-84
2021/01/20 10:36:10;;;;;;;7.80;3.13;;;9.90;99.90;;;;;;5094508;28;20248;-85
2021/01/20 10:38:35;;;;;;;5.47;3.40;;;9.80;99.90;;;;;;5115554;28;20318;-84
2021/01/20 10:41:01;;;;;;;6.33;2.57;;;10.00;99.90;;;;;;5116285;28;20175;-84
2021/01/20 10:43:26;;;;;;;8.73;2.97;;;9.90;99.90;;;;;;5097334;28;20171;-83
2021/01/20 10:45:52;;;;;;;9.20;2.53;;;10.00;99.90;;;;;;5115165;28;20163;-84
2021/01/20 10:48:18;;;;;;;8.03;2.40;;;10.10;99.90;;;;;;5093566;28;20186;-83
2021/01/20 10:50:43;;;;;;;7.50;2.70;;;10.10;99.90;;;;;;5094084;28;20691;-84
2021/01/20 10:53:09;;;;;;;4.93;2.40;;;10.20;99.90;;;;;;5100609;27;20189;-84
2021/01/20 10:55:35;;;;;;;7.47;2.53;;;10.20;99.90;;;;;;5106031;27;20178;-86
2021/01/20 10:58:00;;;;;;;4.67;2.83;;;10.20;99.90;;;;;;5105430;27;20232;-86
2021/01/20 11:00:26;;;;;;;6.70;2.57;;;10.30;99.90;;;;;;5111343;27;20174;-85
2021/01/20 11:02:52;;;;;;;6.87;2.77;;;10.30;99.90;;;;;;5119343;27;20181;-84
2021/01/20 11:05:17;;;;;;;3.80;2.47;;;10.50;99.90;;;;;;5117370;27;20177;-84
2021/01/20 11:07:43;;;;;;;3.83;2.20;;;10.30;99.90;;;;;;5135637;27;20190;-84
2021/01/20 11:10:09;;;;;;;6.57;2.03;;;10.30;99.90;;;;;;5117501;27;20278;-84
2021/01/20 11:12:35;;;;;;;5.07;2.60;;;10.30;99.90;;;;;;5135779;27;20650;-85
2021/01/20 11:15:00;;;;;;;3.93;2.03;;;10.30;99.90;;;;;;5117688;27;20162;-84
2021/01/20 11:17:26;;;;;;;4.80;2.50;;;10.30;99.90;;;;;;5117959;27;20235;-86
2021/01/20 11:19:52;;;;;;;4.43;2.10;;;10.30;99.90;;;;;;5117924;27;20313;-85
2021/01/20 11:22:18;;;;;;;5.73;2.70;;;10.30;99.90;;;;;;5117263;27;20614;-86
2021/01/20 11:24:43;;;;;;;4.83;2.60;;;10.30;99.90;;;;;;5117375;27;20175;-87
2021/01/20 11:27:09;;;;;;;5.83;2.70;;;10.30;99.90;;;;;;5126621;27;20179;-86
2021/01/20 11:29:35;;;;;;;5.43;2.27;;;10.30;99.90;;;;;;5096741;28;20219;-85
2021/01/20 11:32:00;;;;;;;6.77;2.73;;;10.30;99.90;;;;;;5097301;28;20534;-85
2021/01/20 11:34:26;;;;;;;5.73;2.67;;;10.30;99.90;;;;;;5097304;28;20190;-83
2021/01/20 11:36:51;;;;;;;5.80;2.97;;;10.40;99.90;;;;;;5097435;28;20178;-85
2021/01/20 11:39:17;;;;;;;4.10;2.40;;;10.40;99.90;;;;;;5097970;28;20179;-84
2021/01/20 11:41:43;;;;;;;5.10;2.90;;;10.40;99.90;;;;;;5098076;28;20170;-86
2021/01/20 11:44:08;;;;;;;8.03;2.70;;;10.40;99.90;;;;;;5097143;28;20170;-86
2021/01/20 11:46:34;;;;;;;4.00;2.20;;;10.40;99.90;;;;;;5099130;27;20200;-83
2021/01/20 11:49:07;;;;;;;4.10;2.47;;;10.40;99.90;;;;;;5098825;28;20218;-82
2021/01/20 11:51:36;;;;;;;3.57;2.23;;;10.40;99.90;;;;;;5098860;28;20211;-84
2021/01/20 11:54:02;;;;;;;5.53;2.63;;;10.30;99.90;;;;;;5119073;28;20240;-84
2021/01/20 11:56:28;;;;;;;8.47;3.00;;;10.40;99.90;;;;;;5117368;27;20178;-84
2021/01/20 11:58:53;;;;;;;5.23;2.47;;;10.40;99.90;;;;;;5105518;28;20219;-86
2021/01/20 12:01:22;;;;;;;6.70;2.60;;;10.40;99.90;;;;;;5095473;28;20182;-86
2021/01/20 12:03:48;;;;;;;4.00;2.20;;;10.60;99.90;;;;;;5095976;28;20178;-83
2021/01/20 12:06:14;;;;;;;4.70;2.10;;;10.40;99.90;;;;;;5095951;28;20269;-84
2021/01/20 12:08:40;;;;;;;4.90;2.03;;;10.40;99.90;;;;;;5091485;28;20223;-85
2021/01/20 12:11:05;;;;;;;6.30;3.03;;;10.50;99.90;;;;;;5114717;28;20234;-86
2021/01/20 12:13:31;;;;;;;4.63;2.20;;;10.50;99.90;;;;;;5095598;28;20250;-84
2021/01/20 12:15:57;;;;;;;12.40;7.77;;;10.60;99.90;;;;;;5118348;27;20639;-85
2021/01/20 12:18:22;;;;;;;7.20;4.67;;;10.70;99.90;;;;;;5115788;27;20170;-84
2021/01/20 12:20:48;;;;;;;5.77;4.07;;;10.70;99.90;;;;;;5105673;28;20275;-87
2021/01/20 12:23:13;;;;;;;8.27;4.17;;;10.80;99.90;;;;;;5113543;28;20243;-85
2021/01/20 12:25:39;;;;;;;6.93;3.63;;;11.00;99.90;;;;;;5104273;28;20170;-86
2021/01/20 12:28:05;;;;;;;5.93;3.37;;;10.90;99.90;;;;;;5107998;28;20639;-87
2021/01/20 12:30:30;;;;;;;5.10;3.33;;;10.80;99.90;;;;;;5095632;28;20302;-85
2021/01/20 12:32:57;;;;;;;5.63;3.03;;;10.80;99.90;;;;;;5114078;28;20480;-85
2021/01/20 12:35:23;;;;;;;5.07;2.63;;;10.90;99.90;;;;;;5095098;28;20209;-88
2021/01/20 12:37:48;;;;;;;6.20;2.73;;;11.00;99.90;;;;;;5095154;28;20254;-87
2021/01/20 12:40:14;;;;;;;4.67;2.40;;;11.10;99.90;;;;;;5101535;28;20171;-88
2021/01/20 12:42:40;;;;;;;7.97;3.27;;;11.10;99.90;;;;;;5104773;28;20191;-86
2021/01/20 12:45:06;;;;;;;5.37;2.47;;;11.10;99.90;;;;;;5094876;28;20178;-87
2021/01/20 12:47:32;;;;;;;8.07;2.10;;;11.10;99.90;;;;;;5095120;28;20171;-85
2021/01/20 12:49:58;;;;;;;5.37;2.30;;;11.00;99.90;;;;;;5096382;28;20689;-84
2021/01/20 12:52:23;;;;;;;6.23;2.30;;;10.90;99.90;;;;;;5113506;28;20304;-86
2021/01/20 12:54:51;;;;;;;6.30;2.80;;;10.90;99.90;;;;;;5095649;28;20163;-85
2021/01/20 12:57:17;;;;;;;4.43;2.27;;;10.90;99.90;;;;;;5094873;28;20549;-83
2021/01/20 12:59:43;;;;;;;4.40;2.33;;;10.90;99.90;;;;;;5094228;28;20170;-84